createdAt,value
2022-08-17T00:00:33.295Z,0.50
2022-08-17T00:05:48.377Z,0.40
2022-08-17T00:10:52.070Z,0.38
2022-08-17T00:16:00.806Z,0.50
2022-08-17T00:21:04.705Z,0.40
2022-08-17T00:26:16.451Z,0.30
2022-08-17T00:31:38.702Z,0.40
2022-08-17T00:36:41.036Z,0.50
2022-08-17T00:41:43.512Z,0.38
2022-08-17T00:46:48.121Z,0.35
2022-08-17T00:51:55.096Z,0.30
2022-08-17T00:57:01.634Z,0.25
2022-08-17T01:02:04.716Z,0.30
2022-08-17T01:07:07.186Z,0.43
2022-08-17T01:12:10.706Z,0.20
2022-08-17T01:17:13.070Z,0.30
2022-08-17T01:22:18.976Z,0.30
2022-08-17T01:27:21.727Z,0.30
2022-08-17T01:32:23.878Z,0.30
2022-08-17T01:37:36.800Z,0.30
2022-08-17T01:42:56.071Z,0.38
2022-08-17T01:47:58.424Z,0.40
2022-08-17T01:53:04.723Z,0.38
2022-08-17T01:58:09.943Z,0.40
2022-08-17T02:03:13.153Z,0.30
2022-08-17T02:08:19.984Z,0.30
2022-08-17T02:13:22.480Z,0.40
2022-08-17T02:18:25.950Z,0.30
2022-08-17T02:23:29.851Z,0.50
2022-08-17T02:28:32.480Z,0.38
2022-08-17T02:33:42.545Z,0.45
2022-08-17T02:38:45.986Z,0.47
2022-08-17T02:43:48.352Z,0.40
2022-08-17T02:48:50.864Z,0.50
2022-08-17T02:53:53.303Z,0.50
2022-08-17T02:59:06.369Z,0.40
2022-08-17T03:04:08.786Z,0.50
2022-08-17T03:09:10.887Z,0.65
2022-08-17T03:14:12.946Z,0.60
2022-08-17T03:19:15.654Z,0.50
2022-08-17T03:24:18.073Z,0.50
2022-08-17T03:29:20.368Z,0.50
2022-08-17T03:34:22.848Z,0.55
2022-08-17T03:39:25.110Z,0.80
2022-08-17T03:44:27.340Z,0.47
2022-08-17T03:49:48.224Z,0.63
2022-08-17T03:55:09.102Z,0.40
2022-08-17T04:00:11.916Z,0.40
2022-08-17T04:05:15.229Z,0.68
2022-08-17T04:10:17.311Z,0.50
2022-08-17T04:15:19.555Z,0.75
2022-08-17T04:20:23.686Z,0.60
2022-08-17T04:25:27.681Z,0.60
2022-08-17T04:30:32.404Z,0.63
2022-08-17T04:36:02.107Z,0.60
2022-08-17T04:46:32.984Z,0.60
2022-08-17T04:51:54.536Z,0.60
2022-08-17T04:56:58.598Z,0.75
2022-08-17T05:02:00.926Z,0.60
2022-08-17T05:07:04.417Z,0.47
2022-08-17T05:12:06.907Z,0.50
2022-08-17T05:17:11.162Z,0.68
2022-08-17T05:22:14.858Z,0.60
2022-08-17T05:27:18.844Z,0.63
2022-08-17T05:32:37.820Z,0.70
2022-08-17T05:37:42.292Z,1.10
2022-08-17T05:42:44.672Z,1.05
2022-08-17T05:47:47.652Z,1.17
2022-08-17T05:53:31.727Z,0.70
2022-08-17T05:58:50.464Z,1.05
2022-08-17T06:04:22.154Z,1.30
2022-08-17T06:09:56.814Z,0.73
2022-08-17T06:15:17.611Z,1.63
2022-08-17T06:20:20.433Z,0.70
2022-08-17T06:25:45.273Z,0.93
2022-08-17T06:31:00.104Z,1.05
2022-08-17T06:36:40.411Z,1.30
2022-08-17T06:42:09.800Z,0.70
2022-08-17T06:47:49.798Z,0.80
2022-08-17T06:52:58.493Z,0.70
2022-08-17T06:58:16.461Z,0.63
2022-08-17T07:03:27.691Z,0.70
2022-08-17T07:08:39.501Z,0.40
2022-08-17T07:14:19.145Z,0.70
2022-08-17T07:19:24.724Z,0.60
2022-08-17T07:24:42.006Z,0.55
2022-08-17T07:29:50.965Z,0.63
2022-08-17T07:35:11.598Z,0.68
2022-08-17T07:40:23.910Z,0.52
2022-08-17T07:45:44.901Z,0.57
2022-08-17T07:50:53.390Z,0.70
2022-08-17T07:55:55.642Z,0.57
2022-08-17T08:01:12.272Z,0.88
2022-08-17T08:06:23.507Z,0.50
2022-08-17T08:11:35.096Z,0.80
2022-08-17T08:16:38.183Z,0.95
2022-08-17T08:21:59.175Z,0.88
2022-08-17T08:27:36.389Z,0.73
2022-08-17T08:32:50.623Z,0.90
2022-08-17T08:38:11.036Z,0.95
2022-08-17T08:43:36.374Z,1.02
2022-08-17T08:48:58.654Z,0.80
2022-08-17T08:54:17.798Z,0.75
2022-08-17T08:59:58.289Z,0.85
2022-08-17T09:05:26.428Z,0.70
2022-08-17T09:10:40.090Z,0.90
2022-08-17T09:15:48.117Z,0.70
2022-08-17T09:20:55.472Z,0.77
2022-08-17T09:26:07.139Z,0.88
2022-08-17T09:31:13.859Z,0.95
2022-08-17T09:36:23.119Z,1.10
2022-08-17T09:41:49.004Z,1.00
2022-08-17T09:46:56.246Z,0.82
2022-08-17T09:52:05.932Z,0.70
2022-08-17T09:57:30.317Z,0.90
2022-08-17T10:02:51.792Z,1.05
2022-08-17T10:08:23.156Z,1.08
2022-08-17T10:13:52.695Z,1.63
2022-08-17T10:18:58.318Z,1.00
2022-08-17T10:24:26.858Z,1.13
2022-08-17T10:29:46.179Z,0.90
2022-08-17T10:35:08.956Z,0.80
2022-08-17T10:40:35.538Z,0.93
2022-08-17T10:45:45.231Z,0.90
2022-08-17T10:51:01.783Z,1.10
2022-08-17T10:56:13.148Z,0.95
2022-08-17T11:01:16.329Z,1.02
2022-08-17T11:06:42.499Z,1.00
2022-08-17T11:12:07.278Z,0.90
2022-08-17T11:17:43.720Z,1.38
2022-08-17T11:22:45.824Z,1.02
2022-08-17T11:32:58.712Z,1.00
2022-08-17T11:38:31.741Z,0.75
2022-08-17T11:43:52.257Z,0.70
2022-08-17T11:49:18.461Z,0.60
2022-08-17T11:54:48.292Z,0.57
2022-08-17T11:59:57.720Z,0.52
2022-08-17T12:05:21.342Z,0.70
2022-08-17T12:10:32.106Z,0.90
2022-08-17T12:15:42.740Z,0.57
2022-08-17T12:20:46.166Z,0.77
2022-08-17T12:25:56.970Z,0.57
2022-08-17T12:31:03.929Z,0.80
2022-08-17T12:36:09.111Z,0.80
2022-08-17T12:41:28.756Z,1.30
2022-08-17T12:46:34.278Z,0.93
2022-08-17T12:51:36.485Z,0.73
2022-08-17T12:56:39.242Z,0.60
2022-08-17T13:01:42.337Z,0.68
2022-08-17T13:06:51.486Z,0.50
2022-08-17T13:12:02.254Z,0.50
2022-08-17T13:17:09.834Z,0.50
2022-08-17T13:22:13.248Z,0.70
2022-08-17T13:27:15.454Z,0.40
2022-08-17T13:32:24.209Z,0.65
2022-08-17T13:37:33.531Z,0.50
2022-08-17T13:42:52.924Z,0.40
2022-08-17T13:48:20.493Z,0.82
2022-08-17T13:53:37.828Z,0.43
2022-08-17T13:58:54.240Z,0.57
2022-08-17T14:03:56.670Z,0.50
2022-08-17T14:08:59.260Z,0.40
2022-08-17T14:14:02.004Z,0.40
2022-08-17T14:19:04.232Z,0.60
2022-08-17T14:24:08.599Z,0.60
2022-08-17T14:29:12.616Z,0.50
2022-08-17T14:34:18.239Z,0.77
2022-08-17T14:39:21.265Z,0.70
2022-08-17T14:44:23.491Z,0.65
2022-08-17T14:49:26.240Z,0.43
2022-08-17T14:54:34.311Z,0.30
2022-08-17T14:59:36.808Z,0.52
2022-08-17T15:04:44.917Z,0.40
2022-08-17T15:09:47.732Z,0.63
2022-08-17T15:14:51.173Z,0.65
2022-08-17T15:19:53.863Z,0.22
2022-08-17T15:24:56.685Z,1.00
2022-08-17T15:29:58.902Z,0.43
2022-08-17T15:35:03.441Z,0.45
2022-08-17T15:40:07.403Z,0.80
2022-08-17T15:45:12.983Z,0.60
2022-08-17T15:50:15.307Z,0.73
2022-08-17T15:55:23.850Z,0.60
2022-08-17T16:00:28.554Z,0.70
2022-08-17T16:05:31.393Z,0.38
2022-08-17T16:15:38.392Z,0.50
2022-08-17T16:20:40.848Z,0.77
2022-08-17T16:25:52.884Z,0.32
2022-08-17T16:30:56.639Z,0.40
2022-08-17T16:35:58.879Z,0.20
2022-08-17T16:41:01.234Z,0.38
2022-08-17T16:46:03.920Z,0.32
2022-08-17T16:51:06.191Z,0.50
2022-08-17T16:56:08.250Z,0.35
2022-08-17T17:01:10.795Z,0.93
2022-08-17T17:06:33.648Z,0.60
2022-08-17T17:11:44.556Z,0.20
2022-08-17T17:17:07.917Z,0.40
2022-08-17T17:22:19.266Z,0.20
2022-08-17T17:27:41.459Z,0.30
2022-08-17T17:32:53.030Z,0.47
2022-08-17T17:37:57.666Z,0.40
2022-08-17T17:43:20.384Z,0.40
2022-08-17T17:48:24.024Z,0.70
2022-08-17T17:53:35.242Z,0.40
2022-08-17T17:58:58.350Z,0.50
2022-08-17T18:04:24.729Z,0.28
2022-08-17T18:09:41.965Z,0.50
2022-08-17T18:15:07.706Z,0.30
2022-08-17T18:20:10.338Z,0.40
2022-08-17T18:25:43.891Z,0.40
2022-08-17T18:31:07.305Z,0.70
2022-08-17T18:36:09.558Z,0.40
2022-08-17T18:41:19.319Z,0.30
2022-08-17T18:46:37.659Z,0.70
2022-08-17T18:51:43.151Z,0.50
2022-08-17T18:57:00.017Z,0.35
2022-08-17T19:07:43.930Z,0.30
2022-08-17T19:13:12.563Z,0.70
2022-08-17T19:18:23.587Z,0.80
2022-08-17T19:23:53.735Z,0.30
2022-08-17T19:29:04.624Z,0.20
2022-08-17T19:34:07.899Z,0.30
2022-08-17T19:39:13.696Z,0.93
2022-08-17T19:44:43.560Z,0.70
2022-08-17T19:50:04.880Z,0.40
2022-08-17T19:55:21.381Z,0.40
2022-08-17T20:00:24.411Z,0.70
2022-08-17T20:05:30.178Z,0.30
2022-08-17T20:10:54.769Z,0.20
2022-08-17T20:15:57.365Z,0.30
2022-08-17T20:21:03.365Z,0.40
2022-08-17T20:26:05.442Z,0.40
2022-08-17T20:31:39.640Z,0.22
2022-08-17T20:37:01.699Z,0.20
2022-08-17T20:42:24.178Z,0.20
2022-08-17T20:47:55.134Z,0.20
2022-08-17T20:53:06.941Z,0.32
2022-08-17T20:58:14.979Z,0.30
2022-08-17T21:03:23.085Z,0.40
2022-08-17T21:08:29.574Z,0.17
2022-08-17T21:13:55.931Z,0.28
2022-08-17T21:19:22.762Z,0.30
2022-08-17T21:24:37.898Z,0.57
2022-08-17T21:30:14.877Z,0.35
2022-08-17T21:35:25.438Z,0.38
2022-08-17T21:40:31.549Z,0.40
2022-08-17T21:45:36.783Z,0.55
2022-08-17T21:50:41.791Z,0.40
2022-08-17T21:55:48.829Z,0.30
2022-08-17T22:01:10.879Z,0.40
2022-08-17T22:06:21.998Z,0.40
2022-08-17T22:11:24.440Z,0.30
2022-08-17T22:16:30.177Z,0.15
2022-08-17T22:21:32.714Z,0.20
2022-08-17T22:26:59.636Z,0.10
2022-08-17T22:32:01.906Z,0.10
2022-08-17T22:37:21.377Z,0.20
2022-08-17T22:42:31.497Z,0.32
2022-08-17T22:47:43.176Z,0.20
2022-08-17T22:53:04.399Z,0.30
2022-08-17T22:58:33.875Z,0.40
2022-08-17T23:03:56.848Z,0.20
2022-08-17T23:08:58.955Z,0.10
2022-08-17T23:14:01.212Z,0.35
2022-08-17T23:19:03.496Z,0.10
2022-08-17T23:24:08.005Z,0.13
2022-08-17T23:29:10.373Z,0.10
2022-08-17T23:34:14.772Z,0.15
2022-08-17T23:39:27.738Z,0.20
2022-08-17T23:44:31.261Z,0.10
2022-08-17T23:49:34.629Z,0.63
2022-08-17T23:54:44.866Z,0.20
2022-08-17T23:59:47.340Z,0.32
